Bledso, Texas
Current Conditions -  °F | °C
As of 11:58 AM on Tuesday 21 Oct 2014 (Local Time) from KCVS Reporting Station
Clear Clear  
Wind Chill: 67°   Ceiling: Unl
Heat Index: 67°   Visibility: 10mi
Dew Point: 53°   Wind: 9mph
Humidity: 60%   Direction: 190°S
Pressure: 30.16"   Gusts: NA
Location:  33.6301°N, 103.023°W
Report Text: KCVS 211658Z AUTO 19008KT 10SM CLR 20/12 A3016 RMK AO2 SLP172 T01970117 $
Loading
Personal Weather Stations






























Interactive Weather Map
Tropical Storm Tracking
New forecast layout! Learn more

10-Day Weather Forecast

Advertisements
Track Severe Weather on mobile